Time;durP1;ratioP1;P1;durP2;ratioP2;P2;SDS_P1;SDS_P2;PMS_P1;PMS_P2;Temp;Humidity;BMP_temperature;BMP_pressure;BME280_temperature;BME280_humidity;BME280_pressure;Samples;Min_cycle;Max_cycle;Signal;HPM_P1;HPM_P2
2022/03/29 00:02:14;;;;;;;43.13;16.40;;;;;;;8.27;100.00;101326.28;4999720;28;20058;-75
2022/03/29 00:04:40;;;;;;;45.63;17.75;;;;;;;8.32;100.00;101328.75;4984131;28;20054;-76
2022/03/29 00:07:05;;;;;;;41.78;17.65;;;;;;;8.19;100.00;101328.63;5009826;28;20457;-76
2022/03/29 00:09:30;;;;;;;48.30;17.77;;;;;;;8.08;100.00;101326.56;4986559;28;20057;-76
2022/03/29 00:11:56;;;;;;;41.63;16.83;;;;;;;8.12;100.00;101324.53;4984606;28;20038;-76
2022/03/29 00:14:22;;;;;;;44.88;17.45;;;;;;;8.22;100.00;101330.28;4979413;28;20038;-76
2022/03/29 00:16:47;;;;;;;52.53;17.60;;;;;;;8.07;100.00;101332.09;4987350;28;20022;-75
2022/03/29 00:19:13;;;;;;;45.35;17.48;;;;;;;8.10;100.00;101321.03;5001341;28;20039;-76
2022/03/29 00:21:39;;;;;;;42.88;16.98;;;;;;;8.12;100.00;101319.06;4976865;28;20050;-76
2022/03/29 00:24:05;;;;;;;40.40;18.60;;;;;;;8.06;100.00;101323.03;5008343;28;20038;-76
2022/03/29 00:26:31;;;;;;;50.95;17.67;;;;;;;7.96;100.00;101320.97;5001304;28;20498;-76
2022/03/29 00:28:56;;;;;;;36.78;17.48;;;;;;;8.03;100.00;101314.16;4986494;28;20064;-76
2022/03/29 00:31:22;;;;;;;42.17;17.58;;;;;;;7.82;100.00;101319.06;4995967;28;20398;-76
2022/03/29 00:33:49;;;;;;;44.70;17.30;;;;;;;7.92;100.00;101312.09;4997971;28;20037;-75
2022/03/29 00:36:15;;;;;;;39.70;17.05;;;;;;;7.90;100.00;101311.31;4978277;28;20042;-75
2022/03/29 00:38:42;;;;;;;44.03;17.17;;;;;;;7.77;100.00;101305.72;5005999;28;20132;-75
2022/03/29 00:41:08;;;;;;;46.63;18.13;;;;;;;7.75;100.00;101298.63;5013037;28;20361;-76
2022/03/29 00:43:34;;;;;;;48.22;17.20;;;;;;;7.82;100.00;101300.88;5002983;28;20153;-75
2022/03/29 00:45:59;;;;;;;43.63;17.48;;;;;;;7.77;100.00;101302.97;4978557;28;20155;-75
2022/03/29 00:48:25;;;;;;;47.78;18.00;;;;;;;7.86;100.00;101291.53;5009836;28;20504;-75
2022/03/29 00:50:52;;;;;;;44.88;17.98;;;;;;;7.76;100.00;101289.47;5008555;28;20484;-75
2022/03/29 00:53:18;;;;;;;45.92;18.02;;;;;;;7.78;100.00;101285.66;4984486;28;20032;-75
2022/03/29 00:55:45;;;;;;;46.60;19.70;;;;;;;7.82;100.00;101289.97;5004626;28;20095;-75
2022/03/29 00:58:11;;;;;;;43.30;18.65;;;;;;;7.80;100.00;101280.13;4980651;28;20538;-75
2022/03/29 01:00:38;;;;;;;45.10;19.35;;;;;;;7.72;100.00;101275.13;4980117;28;20106;-76
2022/03/29 01:03:04;;;;;;;53.40;20.92;;;;;;;7.82;100.00;101279.06;5008127;28;20026;-76
2022/03/29 01:05:30;;;;;;;49.47;20.67;;;;;;;7.83;100.00;101264.44;4993083;28;20047;-76
2022/03/29 01:07:57;;;;;;;48.58;21.23;;;;;;;7.83;100.00;101275.34;5001729;28;20052;-76
2022/03/29 01:10:23;;;;;;;48.25;21.23;;;;;;;7.79;100.00;101264.72;4968246;28;20389;-75
2022/03/29 01:12:50;;;;;;;43.67;19.52;;;;;;;7.81;100.00;101260.09;4986066;28;20476;-75
2022/03/29 01:15:16;;;;;;;54.90;21.05;;;;;;;7.82;100.00;101257.28;4978551;28;20033;-75
2022/03/29 01:17:43;;;;;;;57.20;21.92;;;;;;;7.79;100.00;101257.44;4982170;28;20077;-75
2022/03/29 01:20:12;;;;;;;50.35;20.90;;;;;;;7.55;100.00;101251.63;5000132;28;20486;-75
2022/03/29 01:22:42;;;;;;;46.30;19.75;;;;;;;7.58;100.00;101258.75;5005530;28;20046;-75
2022/03/29 01:25:09;;;;;;;53.28;20.08;;;;;;;7.58;100.00;101256.03;5004319;28;20038;-75
2022/03/29 01:27:36;;;;;;;46.63;21.50;;;;;;;7.62;100.00;101255.72;4981873;28;20022;-76
2022/03/29 01:30:02;;;;;;;61.10;22.42;;;;;;;7.46;100.00;101249.44;5002137;28;20186;-75
2022/03/29 01:32:29;;;;;;;55.92;24.67;;;;;;;7.32;100.00;101247.56;4962013;28;20496;-75
2022/03/29 01:34:56;;;;;;;56.50;23.73;;;;;;;7.30;100.00;101244.06;5004459;28;20029;-75
2022/03/29 01:37:22;;;;;;;66.63;24.48;;;;;;;7.34;100.00;101242.88;4990098;28;20038;-76
2022/03/29 01:39:47;;;;;;;62.15;24.83;;;;;;;7.36;100.00;101250.00;5011379;28;20026;-75
2022/03/29 01:42:13;;;;;;;56.28;22.73;;;;;;;7.22;100.00;101243.63;4981746;28;20330;-76
2022/03/29 01:44:39;;;;;;;53.65;23.35;;;;;;;7.20;100.00;101238.28;4990694;28;20505;-75
2022/03/29 01:47:06;;;;;;;52.58;21.90;;;;;;;7.17;100.00;101242.03;5011486;28;20040;-75
2022/03/29 01:49:32;;;;;;;47.53;21.42;;;;;;;7.17;100.00;101242.03;4962795;28;20553;-75
2022/03/29 01:51:58;;;;;;;51.08;22.45;;;;;;;7.13;100.00;101245.94;5009481;28;20102;-76
2022/03/29 01:54:24;;;;;;;50.63;22.90;;;;;;;7.04;100.00;101240.13;4992795;28;20116;-76
2022/03/29 01:56:50;;;;;;;50.72;20.85;;;;;;;7.05;100.00;101231.00;4968090;28;20038;-75
2022/03/29 01:59:15;;;;;;;50.70;22.60;;;;;;;7.11;100.00;101234.22;4983435;28;20042;-75
2022/03/29 02:01:43;;;;;;;58.30;23.48;;;;;;;7.04;100.00;101230.13;4993929;28;20437;-75
2022/03/29 02:04:10;;;;;;;59.70;22.23;;;;;;;6.98;100.00;101230.47;4978850;28;20125;-75
2022/03/29 02:06:35;;;;;;;57.03;22.75;;;;;;;6.95;100.00;101225.19;4993510;28;20030;-76
2022/03/29 02:09:03;;;;;;;52.22;23.58;;;;;;;7.02;100.00;101223.91;5006059;28;20469;-76
2022/03/29 02:11:29;;;;;;;49.47;22.95;;;;;;;6.94;100.00;101223.47;4985818;28;20122;-76
2022/03/29 02:13:54;;;;;;;52.58;22.50;;;;;;;6.89;100.00;101228.31;4994174;28;20027;-76
2022/03/29 02:16:20;;;;;;;56.42;24.58;;;;;;;6.93;100.00;101221.69;5001444;28;20057;-76
2022/03/29 02:18:45;;;;;;;56.70;23.77;;;;;;;6.97;100.00;101217.84;5005525;28;20080;-76
2022/03/29 02:21:14;;;;;;;57.05;25.08;;;;;;;6.96;100.00;101221.53;5003306;28;20029;-75
2022/03/29 02:23:40;;;;;;;57.90;24.80;;;;;;;6.89;100.00;101221.00;4986018;28;20085;-76
2022/03/29 02:26:06;;;;;;;70.72;26.33;;;;;;;6.83;100.00;101206.88;4987486;28;20042;-75
2022/03/29 02:28:31;;;;;;;56.58;25.63;;;;;;;6.87;100.00;101206.63;4998221;28;20037;-75
2022/03/29 02:30:57;;;;;;;62.83;25.70;;;;;;;6.79;100.00;101201.59;4986784;28;20359;-75
2022/03/29 02:33:22;;;;;;;62.38;27.10;;;;;;;6.76;100.00;101199.06;5007236;28;20057;-75
2022/03/29 02:35:47;;;;;;;58.67;25.67;;;;;;;6.63;100.00;101195.28;4977992;28;20145;-75
2022/03/29 02:38:13;;;;;;;58.53;26.88;;;;;;;6.59;100.00;101186.44;5004995;28;20033;-75
2022/03/29 02:40:39;;;;;;;59.42;25.70;;;;;;;6.49;100.00;101181.59;4999642;28;20041;-75
2022/03/29 02:43:05;;;;;;;65.55;26.77;;;;;;;6.41;100.00;101174.75;5014236;28;20481;-77
2022/03/29 02:45:30;;;;;;;59.30;28.20;;;;;;;6.50;100.00;101178.78;5001914;28;20042;-75
2022/03/29 02:47:58;;;;;;;56.45;24.95;;;;;;;6.55;100.00;101186.69;4991509;28;20501;-75
2022/03/29 02:50:24;;;;;;;71.30;28.48;;;;;;;6.57;100.00;101177.47;4997870;28;20029;-75
2022/03/29 02:52:59;;;;;;;73.38;27.95;;;;;;;6.65;100.00;101176.16;5005394;28;20461;-75
2022/03/29 02:55:27;;;;;;;68.57;28.27;;;;;;;6.59;100.00;101174.66;5011602;28;20042;-75
2022/03/29 02:57:53;;;;;;;65.55;30.08;;;;;;;6.63;100.00;101168.09;4986857;28;20324;-75
2022/03/29 03:00:19;;;;;;;68.70;30.67;;;;;;;6.54;100.00;101163.16;4982832;28;20026;-75
2022/03/29 03:02:50;;;;;;;80.38;32.00;;;;;;;6.58;100.00;101157.47;5006803;28;20058;-77
2022/03/29 03:05:17;;;;;;;69.57;30.40;;;;;;;6.55;100.00;101160.34;4999433;28;20031;-76
2022/03/29 03:07:44;;;;;;;71.63;29.88;;;;;;;6.59;100.00;101161.03;4986676;28;20494;-75
2022/03/29 03:10:11;;;;;;;69.85;30.92;;;;;;;6.59;100.00;101155.59;5003526;28;20397;-76
2022/03/29 03:12:41;;;;;;;79.95;31.08;;;;;;;6.53;100.00;101150.53;4989961;28;20571;-75
2022/03/29 03:15:08;;;;;;;72.93;32.78;;;;;;;6.49;100.00;101151.66;4985786;28;20104;-75
2022/03/29 03:17:34;;;;;;;67.28;31.80;;;;;;;6.61;100.00;101148.25;5006348;28;20433;-75
2022/03/29 03:20:00;;;;;;;72.35;32.15;;;;;;;6.59;100.00;101142.00;4988109;28;20057;-75
2022/03/29 03:22:25;;;;;;;79.68;34.72;;;;;;;6.55;100.00;101149.47;5002995;28;20046;-76
2022/03/29 03:24:51;;;;;;;81.32;35.58;;;;;;;6.53;100.00;101145.09;5004821;28;20042;-77
2022/03/29 03:27:17;;;;;;;78.32;35.65;;;;;;;6.51;100.00;101153.34;5006779;28;20485;-75
2022/03/29 03:29:44;;;;;;;78.72;33.92;;;;;;;6.53;100.00;101145.97;5008605;28;20030;-75
2022/03/29 03:32:10;;;;;;;80.93;35.65;;;;;;;6.33;100.00;101136.25;5004717;28;20036;-76
2022/03/29 03:34:35;;;;;;;77.80;34.70;;;;;;;6.39;100.00;101138.59;4985144;28;20505;-76
2022/03/29 03:37:03;;;;;;;82.68;34.65;;;;;;;6.31;100.00;101140.00;4972406;28;20048;-76
2022/03/29 03:39:29;;;;;;;81.22;36.85;;;;;;;6.30;100.00;101136.41;4991931;28;20026;-76
2022/03/29 03:41:54;;;;;;;84.00;38.90;;;;;;;6.28;100.00;101132.91;4984373;28;20409;-76
2022/03/29 03:44:20;;;;;;;84.63;38.90;;;;;;;6.37;100.00;101129.66;4979883;28;20050;-76
2022/03/29 03:46:45;;;;;;;98.63;39.08;;;;;;;6.36;100.00;101127.00;5007736;28;20033;-76
2022/03/29 03:49:11;;;;;;;88.47;39.58;;;;;;;6.31;100.00;101126.41;4964413;28;20381;-76
2022/03/29 03:51:37;;;;;;;90.22;39.40;;;;;;;6.32;100.00;101126.31;4991291;28;20038;-76
2022/03/29 03:54:02;;;;;;;95.88;40.97;;;;;;;6.27;100.00;101114.81;4991924;28;20108;-76
2022/03/29 03:56:28;;;;;;;94.35;42.40;;;;;;;6.28;100.00;101121.13;4992046;28;20050;-76
2022/03/29 03:58:53;;;;;;;101.80;42.47;;;;;;;6.29;100.00;101118.31;5005956;28;20040;-76
2022/03/29 04:01:19;;;;;;;109.75;41.92;;;;;;;6.20;100.00;101113.44;4996852;28;20037;-76
2022/03/29 04:03:44;;;;;;;97.97;42.75;;;;;;;6.23;100.00;101116.84;5005424;28;20060;-76
2022/03/29 04:06:10;;;;;;;92.72;41.22;;;;;;;6.27;100.00;101116.69;4977046;28;20038;-76
2022/03/29 04:08:35;;;;;;;93.82;41.72;;;;;;;6.18;100.00;101110.81;5002482;28;20030;-76
2022/03/29 04:11:02;;;;;;;96.95;42.60;;;;;;;6.15;100.00;101112.78;4977262;28;20034;-76
2022/03/29 04:13:28;;;;;;;96.43;40.95;;;;;;;6.19;100.00;101098.06;4999871;28;20038;-76
2022/03/29 04:15:54;;;;;;;101.15;43.33;;;;;;;6.12;100.00;101104.84;4983087;28;20164;-76
2022/03/29 04:18:19;;;;;;;102.68;44.13;;;;;;;6.07;100.00;101097.81;4989843;28;20026;-76
2022/03/29 04:20:45;;;;;;;99.88;43.05;;;;;;;6.05;100.00;101090.69;4986942;28;20132;-77
2022/03/29 04:23:10;;;;;;;101.57;42.03;;;;;;;6.11;100.00;101087.63;4963423;28;20076;-76
2022/03/29 04:25:36;;;;;;;103.20;42.47;;;;;;;6.08;100.00;101090.50;4982968;28;20138;-75
2022/03/29 04:28:02;;;;;;;100.15;43.88;;;;;;;6.07;100.00;101083.34;4984446;28;20061;-75
2022/03/29 04:30:27;;;;;;;94.13;42.20;;;;;;;5.94;100.00;101076.81;4977080;28;20026;-75
2022/03/29 04:32:53;;;;;;;95.15;41.78;;;;;;;6.09;100.00;101084.13;4977882;28;20379;-75
2022/03/29 04:35:19;;;;;;;98.80;41.58;;;;;;;6.06;100.00;101085.16;4980385;28;20034;-75
2022/03/29 04:37:44;;;;;;;102.30;45.33;;;;;;;6.01;100.00;101084.56;4981783;28;20105;-75
2022/03/29 04:40:10;;;;;;;98.68;43.75;;;;;;;5.92;100.00;101084.16;4975238;28;20031;-75
2022/03/29 04:42:50;;;;;;;96.25;43.13;;;;;;;5.81;100.00;101084.78;4989587;28;20459;-75
2022/03/29 04:45:17;;;;;;;101.65;42.17;;;;;;;5.89;100.00;101080.66;4980413;28;20054;-75
2022/03/29 04:47:44;;;;;;;96.30;41.13;;;;;;;6.04;100.00;101086.22;4978527;28;20034;-75
2022/03/29 04:50:11;;;;;;;100.10;41.13;;;;;;;5.98;100.00;101084.72;4981098;28;20053;-75
2022/03/29 04:52:39;;;;;;;97.97;40.42;;;;;;;5.92;100.00;101084.16;4978515;28;20045;-75
2022/03/29 04:55:08;;;;;;;97.32;40.88;;;;;;;5.92;100.00;101078.72;4975159;28;20030;-76
2022/03/29 04:57:34;;;;;;;93.93;41.75;;;;;;;5.91;100.00;101077.84;4962108;28;20478;-75
2022/03/29 05:00:00;;;;;;;95.25;42.03;;;;;;;5.91;100.00;101071.56;5000819;28;20121;-75
2022/03/29 05:02:25;;;;;;;105.20;42.17;;;;;;;5.96;100.00;101080.31;4976823;28;20440;-75
2022/03/29 05:04:51;;;;;;;120.60;45.83;;;;;;;5.82;100.00;101076.53;4987365;28;20046;-74
2022/03/29 05:07:17;;;;;;;108.15;42.60;;;;;;;5.79;100.00;101074.00;4979211;28;20541;-75
2022/03/29 05:09:43;;;;;;;103.55;43.58;;;;;;;5.83;100.00;101070.13;4980634;28;20072;-77
2022/03/29 05:12:09;;;;;;;118.95;46.67;;;;;;;5.83;100.00;101071.97;4965441;28;20426;-75
2022/03/29 05:14:35;;;;;;;122.43;47.38;;;;;;;5.74;100.00;101067.03;4986710;28;20093;-75
2022/03/29 05:17:01;;;;;;;108.95;42.67;;;;;;;5.82;100.00;101067.50;4985799;28;20101;-75
2022/03/29 05:19:26;;;;;;;129.38;46.42;;;;;;;5.77;100.00;101075.03;4984906;28;20422;-75
2022/03/29 05:21:52;;;;;;;124.03;48.03;;;;;;;5.73;100.00;101076.16;4989946;28;20425;-75
2022/03/29 05:24:18;;;;;;;122.03;45.75;;;;;;;5.75;100.00;101069.69;5002651;28;20034;-75
2022/03/29 05:26:44;;;;;;;127.57;45.97;;;;;;;5.74;100.00;101067.03;4985998;28;20077;-75
2022/03/29 05:29:11;;;;;;;120.53;45.00;;;;;;;5.87;100.00;101068.09;4979797;28;20508;-75
2022/03/29 05:31:38;;;;;;;123.13;47.30;;;;;;;5.75;100.00;101063.38;4985205;28;20076;-75
2022/03/29 05:34:03;;;;;;;126.93;46.22;;;;;;;5.76;100.00;101066.00;4991244;28;20057;-75
2022/03/29 05:36:29;;;;;;;127.53;45.33;;;;;;;5.86;100.00;101063.66;5003318;28;20026;-75
2022/03/29 05:38:55;;;;;;;138.75;49.75;;;;;;;5.73;100.00;101065.31;4977446;28;20047;-75
2022/03/29 05:41:20;;;;;;;135.70;47.25;;;;;;;5.75;100.00;101068.81;5000147;28;20037;-75
2022/03/29 05:43:48;;;;;;;144.10;49.40;;;;;;;5.68;100.00;101052.84;5004762;28;20057;-75
2022/03/29 05:48:59;;;;;;;130.10;45.38;;;;;;;5.77;100.00;101056.00;4994285;28;20033;-75
2022/03/29 05:51:27;;;;;;;133.32;45.13;;;;;;;5.87;100.00;101068.09;4990709;28;20026;-75
2022/03/29 05:53:54;;;;;;;137.77;49.20;;;;;;;5.86;100.00;101059.09;4982707;28;20521;-75
2022/03/29 05:56:20;;;;;;;138.50;46.67;;;;;;;5.80;100.00;101061.28;4991860;28;20338;-75
2022/03/29 05:58:45;;;;;;;129.48;46.65;;;;;;;5.81;100.00;101053.03;4995138;28;20057;-75
2022/03/29 06:01:11;;;;;;;137.18;47.60;;;;;;;5.88;100.00;101048.13;4983366;28;20062;-75
2022/03/29 06:03:37;;;;;;;125.50;45.13;;;;;;;5.88;100.00;101059.88;4984255;28;20076;-75
2022/03/29 06:06:02;;;;;;;139.55;47.85;;;;;;;5.85;100.00;101054.63;4987882;28;20038;-75
2022/03/29 06:08:29;;;;;;;137.40;47.33;;;;;;;5.93;100.00;101048.75;5005710;28;20058;-75
2022/03/29 06:10:55;;;;;;;132.00;43.63;;;;;;;5.89;100.00;101049.91;4989058;28;20362;-75
2022/03/29 06:13:20;;;;;;;132.18;45.42;;;;;;;5.90;100.00;101048.91;4991990;28;20045;-75
2022/03/29 06:15:46;;;;;;;146.15;45.35;;;;;;;5.98;100.00;101056.69;4993797;28;20128;-76
2022/03/29 06:18:12;;;;;;;133.45;44.33;;;;;;;5.88;100.00;101061.72;5002105;28;20522;-76
2022/03/29 06:20:38;;;;;;;145.38;44.80;;;;;;;5.81;100.00;101063.03;4984935;28;20084;-76
2022/03/29 06:23:04;;;;;;;141.95;46.47;;;;;;;5.91;100.00;101061.56;4986306;28;20039;-75
2022/03/29 06:25:32;;;;;;;141.90;46.13;;;;;;;6.04;100.00;101065.34;4988706;28;20030;-75
2022/03/29 06:27:58;;;;;;;144.80;45.65;;;;;;;5.99;100.00;101067.47;4985630;28;20058;-76
2022/03/29 06:30:24;;;;;;;140.77;47.13;;;;;;;5.91;100.00;101072.41;4979940;28;20030;-75
2022/03/29 06:32:53;;;;;;;155.93;48.58;;;;;;;6.01;100.00;101061.94;4988992;28;20467;-75
2022/03/29 06:35:24;;;;;;;158.82;45.30;;;;;;;5.99;100.00;101061.16;4980370;28;20496;-76
2022/03/29 06:37:58;;;;;;;145.52;47.45;;;;;;;6.09;100.00;101053.34;4984193;28;20108;-75
2022/03/29 06:40:25;;;;;;;167.48;46.78;;;;;;;6.20;100.00;101061.78;4983860;28;20031;-75
2022/03/29 06:42:53;;;;;;;155.73;47.67;;;;;;;5.97;100.00;101053.09;4984847;28;20534;-75
2022/03/29 06:45:19;;;;;;;171.77;47.58;;;;;;;6.17;100.00;101070.09;4988980;28;20054;-75
2022/03/29 06:47:45;;;;;;;173.02;50.60;;;;;;;6.24;100.00;101069.66;4987391;28;20112;-75
2022/03/29 06:50:11;;;;;;;172.95;50.47;;;;;;;6.15;100.00;101067.47;4990337;28;20026;-75
2022/03/29 06:52:39;;;;;;;167.52;50.50;;;;;;;6.11;100.00;101059.56;4981987;28;20055;-74
2022/03/29 06:55:07;;;;;;;151.75;45.97;;;;;;;6.23;100.00;101064.28;4982668;28;20042;-74
2022/03/29 06:57:32;;;;;;;181.05;52.20;;;;;;;6.12;100.00;101058.63;4995693;28;20109;-74
2022/03/29 06:59:58;;;;;;;183.55;51.83;;;;;;;6.15;100.00;101063.84;4979355;28;20506;-74
2022/03/29 07:02:24;;;;;;;175.55;52.50;;;;;;;6.30;100.00;101068.44;4983124;28;20118;-74
2022/03/29 07:04:50;;;;;;;197.15;53.53;;;;;;;6.37;100.00;101063.50;4988447;28;20038;-74
2022/03/29 07:07:16;;;;;;;192.75;52.80;;;;;;;6.23;100.00;101067.00;4976143;28;20054;-74
2022/03/29 07:12:26;;;;;;;191.20;50.60;;;;;;;6.23;100.00;101069.72;4985594;28;20077;-74
2022/03/29 07:14:52;;;;;;;173.80;48.63;;;;;;;6.42;100.00;101067.69;4961989;28;20065;-73
2022/03/29 07:17:18;;;;;;;171.80;48.22;;;;;;;6.31;100.00;101061.13;4991933;28;20030;-74
2022/03/29 07:19:46;;;;;;;206.60;50.45;;;;;;;6.25;100.00;101067.81;4983783;28;20498;-75
2022/03/29 07:22:11;;;;;;;182.25;52.17;;;;;;;6.25;100.00;101062.38;4960154;28;20050;-75
2022/03/29 07:24:38;;;;;;;180.23;51.00;;;;;;;6.28;100.00;101058.59;4984239;28;20408;-76
2022/03/29 07:27:03;;;;;;;178.48;50.95;;;;;;;6.28;100.00;101053.16;4984932;28;20034;-75
2022/03/29 07:29:29;;;;;;;176.63;49.00;;;;;;;6.27;100.00;101052.28;5001829;28;20026;-75
2022/03/29 07:31:55;;;;;;;182.27;51.80;;;;;;;6.28;100.00;101047.72;4972136;28;20039;-75
2022/03/29 07:34:21;;;;;;;199.70;54.83;;;;;;;6.42;100.00;101047.78;4979615;28;20188;-75
2022/03/29 07:36:48;;;;;;;194.20;52.47;;;;;;;6.62;100.00;101042.06;4975970;28;20532;-75
2022/03/29 07:39:14;;;;;;;183.27;50.83;;;;;;;6.42;100.00;101037.78;5000634;28;20087;-75
2022/03/29 07:41:41;;;;;;;207.57;53.80;;;;;;;6.46;100.00;101037.59;4994659;28;20034;-75
2022/03/29 07:44:07;;;;;;;201.35;53.22;;;;;;;6.42;100.00;101043.22;4986085;28;20062;-75
2022/03/29 07:46:33;;;;;;;193.43;53.80;;;;;;;6.63;100.00;101045.66;4977689;28;20139;-75
2022/03/29 07:48:58;;;;;;;185.52;50.65;;;;;;;6.75;100.00;101039.47;5003818;28;20030;-75
2022/03/29 07:51:23;;;;;;;191.63;51.72;;;;;;;6.59;100.00;101044.06;4986220;28;20042;-75
2022/03/29 07:53:49;;;;;;;193.00;51.83;;;;;;;6.39;100.00;101045.25;5002715;28;20219;-75
2022/03/29 07:56:15;;;;;;;169.45;47.53;;;;;;;6.62;100.00;101043.88;4981447;28;20470;-75
2022/03/29 07:58:40;;;;;;;176.85;51.20;;;;;;;6.67;100.00;101041.75;4983289;28;20030;-75
2022/03/29 08:01:06;;;;;;;187.57;50.58;;;;;;;6.63;100.00;101040.22;4977734;28;20034;-75
2022/03/29 08:03:34;;;;;;;180.13;50.97;;;;;;;6.64;100.00;101039.25;4983270;28;20049;-76
2022/03/29 08:06:01;;;;;;;189.10;50.75;;;;;;;6.64;100.00;101044.69;4984221;28;20040;-75
2022/03/29 08:08:27;;;;;;;170.07;47.92;;;;;;;6.79;100.00;101046.47;4986399;28;20022;-75
2022/03/29 08:10:53;;;;;;;199.23;52.42;;;;;;;6.65;100.00;101048.28;5003313;28;20038;-75
2022/03/29 08:13:21;;;;;;;189.40;50.50;;;;;;;6.61;100.00;101045.75;4980677;28;20081;-75
2022/03/29 08:15:49;;;;;;;176.75;48.15;;;;;;;6.68;100.00;101059.00;4979752;28;20030;-74
2022/03/29 08:18:17;;;;;;;181.20;51.60;;;;;;;6.51;100.00;101046.38;4976794;28;20466;-74
2022/03/29 08:20:43;;;;;;;182.95;51.05;;;;;;;6.65;100.00;101061.88;4982899;28;20041;-75
2022/03/29 08:23:09;;;;;;;191.88;51.03;;;;;;;6.60;100.00;101067.59;4992475;28;20129;-74
2022/03/29 08:25:37;;;;;;;179.63;50.85;;;;;;;6.66;100.00;101059.06;4983739;28;20053;-75
2022/03/29 08:28:03;;;;;;;163.48;46.75;;;;;;;6.67;100.00;101066.25;4988253;28;20030;-75
2022/03/29 08:30:30;;;;;;;185.52;50.10;;;;;;;6.66;100.00;101069.97;5003288;28;20041;-75
2022/03/29 08:32:57;;;;;;;188.57;50.85;;;;;;;6.62;100.00;101065.66;4984888;28;20088;-75
2022/03/29 08:35:24;;;;;;;177.30;47.85;;;;;;;6.81;100.00;101074.47;4982223;28;20034;-75
2022/03/29 08:37:50;;;;;;;185.70;51.50;;;;;;;6.72;100.00;101074.16;4982960;28;20026;-75
2022/03/29 08:40:19;;;;;;;189.90;52.17;;;;;;;6.71;100.00;101078.72;5002834;28;20417;-75
2022/03/29 08:42:49;;;;;;;184.60;50.80;;;;;;;6.73;100.00;101062.31;4985728;28;20590;-74
2022/03/29 08:45:16;;;;;;;168.13;49.28;;;;;;;6.88;100.00;101077.69;4983890;28;20144;-74
2022/03/29 08:47:44;;;;;;;174.50;49.25;;;;;;;6.93;100.00;101064.69;4991741;28;20049;-74
2022/03/29 08:50:12;;;;;;;179.00;51.95;;;;;;;6.95;100.00;101067.31;4985781;28;20041;-76
2022/03/29 08:52:39;;;;;;;170.65;50.08;;;;;;;7.13;100.00;101063.50;4983803;28;20042;-75
2022/03/29 08:55:06;;;;;;;174.75;48.05;;;;;;;7.08;100.00;101051.97;4980993;28;20070;-76
2022/03/29 08:57:32;;;;;;;188.85;50.50;;;;;;;7.14;100.00;101056.19;4982367;28;20042;-76
2022/03/29 08:59:58;;;;;;;151.68;45.92;;;;;;;7.15;100.00;101055.22;5000987;28;20057;-76
2022/03/29 09:02:25;;;;;;;154.70;47.42;;;;;;;7.18;100.00;101039.56;5001217;28;20038;-75
2022/03/29 09:05:07;;;;;;;137.27;45.70;;;;;;;7.42;100.00;101051.75;4982952;28;20096;-76
2022/03/29 09:07:55;;;;;;;155.90;47.53;;;;;;;6.97;100.00;101046.34;4982428;28;20092;-76
2022/03/29 09:10:44;;;;;;;144.75;48.40;;;;;;;7.15;100.00;101036.19;4981931;28;20449;-76
2022/03/29 09:13:27;;;;;;;135.90;46.50;;;;;;;7.13;100.00;101032.66;4981771;28;20125;-76
2022/03/29 09:15:55;;;;;;;129.30;44.50;;;;;;;7.27;100.00;101032.66;4985389;28;20072;-76
2022/03/29 09:18:21;;;;;;;110.25;39.97;;;;;;;7.38;100.00;101040.19;4988522;28;20053;-76
2022/03/29 09:21:05;;;;;;;109.30;39.63;;;;;;;7.49;100.00;101044.94;4996946;28;20500;-76
2022/03/29 09:23:30;;;;;;;105.50;39.13;;;;;;;7.57;100.00;101037.16;4985523;28;20429;-76
2022/03/29 09:25:56;;;;;;;124.55;42.95;;;;;;;7.43;100.00;101038.03;4991825;28;20169;-75
2022/03/29 09:28:22;;;;;;;114.97;41.85;;;;;;;7.48;100.00;101033.16;4981949;28;20065;-75
2022/03/29 09:30:52;;;;;;;123.78;43.65;;;;;;;7.43;100.00;101024.41;4982682;28;20417;-75
2022/03/29 09:33:32;;;;;;;112.95;42.15;;;;;;;7.63;100.00;101044.06;5001557;28;20386;-75
2022/03/29 09:36:07;;;;;;;113.25;41.95;;;;;;;7.47;100.00;101039.56;4986457;28;20474;-75
2022/03/29 09:38:41;;;;;;;116.35;41.47;;;;;;;7.56;100.00;101038.16;4985195;28;20034;-75
2022/03/29 09:41:28;;;;;;;114.50;42.38;;;;;;;7.44;100.00;101039.78;5001415;28;20146;-76
2022/03/29 09:44:06;;;;;;;104.18;40.40;;;;;;;7.62;100.00;101031.41;5002458;28;20042;-76
2022/03/29 09:46:59;;;;;;;114.50;39.70;;;;;;;7.75;100.00;101034.22;4977548;28;20030;-75
2022/03/29 09:49:26;;;;;;;108.20;38.67;;;;;;;7.73;100.00;101026.16;4990753;28;20389;-76
2022/03/29 09:52:14;;;;;;;108.72;39.00;;;;;;;7.93;100.00;101019.41;4987841;28;20382;-76
2022/03/29 09:54:39;;;;;;;98.00;38.08;;;;;;;7.95;100.00;101022.03;4994210;28;20053;-75
2022/03/29 09:57:05;;;;;;;102.75;38.33;;;;;;;8.01;100.00;101032.53;4978473;28;20030;-76
2022/03/29 09:59:36;;;;;;;110.53;38.67;;;;;;;7.92;100.00;101023.13;4997440;28;20042;-75
2022/03/29 10:02:03;;;;;;;101.50;38.65;;;;;;;7.91;100.00;101026.81;4987813;28;20038;-76
2022/03/29 10:04:29;;;;;;;100.75;37.63;;;;;;;7.85;100.00;101014.44;5000562;28;20112;-75
2022/03/29 10:06:57;;;;;;;94.75;36.72;;;;;;;7.86;100.00;101013.47;4996828;28;20034;-76
2022/03/29 10:09:27;;;;;;;107.95;39.40;;;;;;;7.88;100.00;101005.19;4994834;28;20040;-75
2022/03/29 10:12:03;;;;;;;108.70;39.75;;;;;;;7.90;100.00;101000.50;4987068;28;20025;-75
2022/03/29 10:14:31;;;;;;;101.40;36.15;;;;;;;8.13;100.00;101003.56;4983428;28;20037;-75
2022/03/29 10:16:57;;;;;;;113.70;42.80;;;;;;;8.04;100.00;100988.72;5015671;28;20040;-75
2022/03/29 10:19:23;;;;;;;110.07;39.60;;;;;;;8.26;100.00;100991.75;4992485;28;20507;-75
2022/03/29 10:21:50;;;;;;;108.55;40.20;;;;;;;8.16;100.00;100987.88;4997501;28;20033;-75
2022/03/29 10:24:18;;;;;;;88.63;34.53;;;;;;;8.36;100.00;100996.56;5008813;28;20054;-75
2022/03/29 10:26:47;;;;;;;105.97;39.67;;;;;;;8.48;100.00;100993.06;4979864;28;20121;-75
2022/03/29 10:29:13;;;;;;;99.57;38.42;;;;;;;8.39;100.00;100989.03;4990476;28;20046;-75
2022/03/29 10:31:54;;;;;;;99.47;38.28;;;;;;;8.42;100.00;100996.16;4991462;28;20034;-75
2022/03/29 10:34:30;;;;;;;103.70;38.08;;;;;;;8.59;100.00;100995.94;4982034;28;20121;-76
2022/03/29 10:37:07;;;;;;;96.18;36.65;;;;;;;8.55;100.00;100993.50;4978013;28;20080;-75
2022/03/29 10:39:49;;;;;;;106.35;38.47;;;;;;;8.40;100.00;100990.81;5011265;28;20069;-75
2022/03/29 10:42:41;;;;;;;112.38;38.97;;;;;;;8.59;100.00;100989.56;4983244;28;20485;-75
2022/03/29 10:45:13;;;;;;;101.63;38.33;;;;;;;8.74;100.00;100976.72;5001442;28;20104;-76
2022/03/29 10:47:40;;;;;;;103.50;37.80;;;;;;;8.79;100.00;100980.91;4984745;28;20289;-76
2022/03/29 10:50:08;;;;;;;109.97;39.85;;;;;;;8.59;100.00;100976.81;4979926;28;20567;-76
2022/03/29 10:52:39;;;;;;;92.65;33.95;;;;;;;9.04;100.00;100970.09;4983926;28;20030;-76
2022/03/29 10:55:34;;;;;;;103.60;38.17;;;;;;;8.89;100.00;100972.06;4992656;28;20085;-76
2022/03/29 10:58:14;;;;;;;99.95;38.88;;;;;;;9.31;100.00;100970.88;4987884;28;20520;-76
2022/03/29 11:00:44;;;;;;;105.50;39.92;;;;;;;9.39;100.00;100975.75;4978554;28;20505;-76
2022/03/29 11:03:12;;;;;;;93.70;36.95;;;;;;;9.25;100.00;100960.38;5007228;28;20030;-75
2022/03/29 11:06:03;;;;;;;99.82;37.88;;;;;;;9.59;100.00;100959.75;4992527;28;20400;-76
2022/03/29 11:08:29;;;;;;;101.72;38.15;;;;;;;9.70;100.00;100954.38;5007379;28;20033;-76
2022/03/29 11:10:56;;;;;;;103.43;38.30;;;;;;;9.78;100.00;100953.81;5009695;28;20030;-76
2022/03/29 11:13:31;;;;;;;96.25;38.15;;;;;;;9.99;100.00;100944.00;4966387;28;20405;-76